sensor_id;sensor_type;location;lat;lon;timestamp;P1;durP1;ratioP1;P2;durP2;ratioP2
48881;SDS011;57063;51.406;-2.402;2022-12-11T12:33:43;31.67;;;18.85;;
48881;SDS011;57063;51.406;-2.402;2022-12-11T12:38:52;27.88;;;17.27;;
48881;SDS011;57063;51.406;-2.402;2022-12-11T12:44:10;31.65;;;18.98;;
48881;SDS011;57063;51.406;-2.402;2022-12-11T12:46:57;34.95;;;19.58;;
48881;SDS011;57063;51.406;-2.402;2022-12-11T12:52:12;32.13;;;18.27;;
48881;SDS011;57063;51.406;-2.402;2022-12-11T12:54:43;31.30;;;19.27;;
48881;SDS011;57063;51.406;-2.402;2022-12-11T12:57:30;33.00;;;19.30;;
48881;SDS011;57063;51.406;-2.402;2022-12-11T12:59:58;37.65;;;20.70;;
48881;SDS011;57063;51.406;-2.402;2022-12-11T13:02:23;33.65;;;18.33;;
48881;SDS011;57063;51.406;-2.402;2022-12-11T13:04:59;29.70;;;17.42;;
48881;SDS011;57063;51.406;-2.402;2022-12-11T13:07:46;37.67;;;19.13;;
48881;SDS011;57063;51.406;-2.402;2022-12-11T13:10:24;32.55;;;18.38;;
48881;SDS011;57063;51.406;-2.402;2022-12-11T13:12:54;33.72;;;17.83;;
48881;SDS011;57063;51.406;-2.402;2022-12-11T13:17:54;32.28;;;16.45;;
48881;SDS011;57063;51.406;-2.402;2022-12-11T13:20:22;32.35;;;16.00;;
48881;SDS011;57063;51.406;-2.402;2022-12-11T13:25:46;29.85;;;16.98;;
48881;SDS011;57063;51.406;-2.402;2022-12-11T13:28:20;31.83;;;16.25;;
48881;SDS011;57063;51.406;-2.402;2022-12-11T13:36:54;37.00;;;20.50;;
48881;SDS011;57063;51.406;-2.402;2022-12-11T13:39:23;34.35;;;18.35;;
48881;SDS011;57063;51.406;-2.402;2022-12-11T13:44:49;32.63;;;17.63;;
48881;SDS011;57063;51.406;-2.402;2022-12-11T13:47:16;32.60;;;17.67;;
48881;SDS011;57063;51.406;-2.402;2022-12-11T13:49:45;35.88;;;18.38;;
48881;SDS011;57063;51.406;-2.402;2022-12-11T13:54:47;32.15;;;17.38;;
48881;SDS011;57063;51.406;-2.402;2022-12-11T13:57:15;36.15;;;17.30;;
48881;SDS011;57063;51.406;-2.402;2022-12-11T13:59:55;32.10;;;17.08;;
48881;SDS011;57063;51.406;-2.402;2022-12-11T14:08:34;34.50;;;18.02;;
48881;SDS011;57063;51.406;-2.402;2022-12-11T14:11:02;39.33;;;19.77;;
48881;SDS011;57063;51.406;-2.402;2022-12-11T14:13:32;36.92;;;18.15;;
48881;SDS011;57063;51.406;-2.402;2022-12-11T14:16:00;32.88;;;17.10;;
48881;SDS011;57063;51.406;-2.402;2022-12-11T14:18:31;37.08;;;18.60;;
48881;SDS011;57063;51.406;-2.402;2022-12-11T14:21:00;38.38;;;18.48;;
48881;SDS011;57063;51.406;-2.402;2022-12-11T14:23:28;38.03;;;19.02;;
48881;SDS011;57063;51.406;-2.402;2022-12-11T14:25:59;35.83;;;18.90;;
48881;SDS011;57063;51.406;-2.402;2022-12-11T14:41:40;34.50;;;18.58;;
48881;SDS011;57063;51.406;-2.402;2022-12-11T18:33:44;20.35;;;12.75;;
48881;SDS011;57063;51.406;-2.402;2022-12-11T18:58:35;17.23;;;10.77;;
48881;SDS011;57063;51.406;-2.402;2022-12-11T19:01:41;16.98;;;10.50;;
48881;SDS011;57063;51.406;-2.402;2022-12-11T19:07:46;17.52;;;10.50;;
48881;SDS011;57063;51.406;-2.402;2022-12-11T19:10:33;17.42;;;11.02;;
48881;SDS011;57063;51.406;-2.402;2022-12-11T19:13:51;15.02;;;10.60;;
48881;SDS011;57063;51.406;-2.402;2022-12-11T19:19:36;14.82;;;11.05;;
48881;SDS011;57063;51.406;-2.402;2022-12-11T19:22:02;18.10;;;11.52;;
48881;SDS011;57063;51.406;-2.402;2022-12-11T19:24:28;17.58;;;11.43;;
48881;SDS011;57063;51.406;-2.402;2022-12-11T19:27:01;15.77;;;11.05;;
48881;SDS011;57063;51.406;-2.402;2022-12-11T19:29:32;17.17;;;10.93;;
48881;SDS011;57063;51.406;-2.402;2022-12-11T19:32:00;18.08;;;11.40;;
48881;SDS011;57063;51.406;-2.402;2022-12-11T19:34:27;17.95;;;11.75;;
48881;SDS011;57063;51.406;-2.402;2022-12-11T19:36:52;17.85;;;11.38;;
48881;SDS011;57063;51.406;-2.402;2022-12-11T19:39:18;19.17;;;11.38;;
48881;SDS011;57063;51.406;-2.402;2022-12-11T19:41:52;16.25;;;11.75;;
48881;SDS011;57063;51.406;-2.402;2022-12-11T19:44:18;20.42;;;11.98;;
48881;SDS011;57063;51.406;-2.402;2022-12-11T19:46:43;17.55;;;12.20;;
48881;SDS011;57063;51.406;-2.402;2022-12-11T19:49:09;16.90;;;12.10;;
48881;SDS011;57063;51.406;-2.402;2022-12-11T19:51:37;20.27;;;12.50;;
48881;SDS011;57063;51.406;-2.402;2022-12-11T19:54:04;15.55;;;11.30;;
48881;SDS011;57063;51.406;-2.402;2022-12-11T19:56:32;15.32;;;10.90;;
48881;SDS011;57063;51.406;-2.402;2022-12-11T19:59:03;15.60;;;10.30;;
48881;SDS011;57063;51.406;-2.402;2022-12-11T20:01:33;14.95;;;10.85;;
48881;SDS011;57063;51.406;-2.402;2022-12-11T20:04:04;17.48;;;12.02;;
48881;SDS011;57063;51.406;-2.402;2022-12-11T20:06:35;15.52;;;11.48;;
48881;SDS011;57063;51.406;-2.402;2022-12-11T20:09:03;18.75;;;12.85;;
48881;SDS011;57063;51.406;-2.402;2022-12-11T20:11:31;18.70;;;12.25;;
48881;SDS011;57063;51.406;-2.402;2022-12-11T20:14:00;19.52;;;11.85;;
48881;SDS011;57063;51.406;-2.402;2022-12-11T20:16:28;22.15;;;13.20;;
48881;SDS011;57063;51.406;-2.402;2022-12-11T20:18:58;22.27;;;14.77;;
48881;SDS011;57063;51.406;-2.402;2022-12-11T20:21:23;23.13;;;13.65;;
48881;SDS011;57063;51.406;-2.402;2022-12-11T20:23:51;20.95;;;13.93;;
48881;SDS011;57063;51.406;-2.402;2022-12-11T20:26:20;23.75;;;14.23;;
48881;SDS011;57063;51.406;-2.402;2022-12-11T20:28:48;33.13;;;18.13;;
48881;SDS011;57063;51.406;-2.402;2022-12-11T20:31:18;36.47;;;19.48;;
48881;SDS011;57063;51.406;-2.402;2022-12-11T20:33:50;35.80;;;18.73;;
48881;SDS011;57063;51.406;-2.402;2022-12-11T20:36:21;31.63;;;18.15;;
48881;SDS011;57063;51.406;-2.402;2022-12-11T20:38:48;36.72;;;20.58;;
48881;SDS011;57063;51.406;-2.402;2022-12-11T20:41:16;39.22;;;20.85;;
48881;SDS011;57063;51.406;-2.402;2022-12-11T20:43:43;40.45;;;20.67;;
48881;SDS011;57063;51.406;-2.402;2022-12-11T20:48:55;26.52;;;17.10;;
48881;SDS011;57063;51.406;-2.402;2022-12-11T20:52:00;30.88;;;16.17;;
48881;SDS011;57063;51.406;-2.402;2022-12-11T20:58:51;27.83;;;14.25;;
48881;SDS011;57063;51.406;-2.402;2022-12-11T21:13:13;17.35;;;10.90;;
48881;SDS011;57063;51.406;-2.402;2022-12-11T21:41:33;23.20;;;13.55;;
48881;SDS011;57063;51.406;-2.402;2022-12-11T22:16:07;38.40;;;19.02;;
48881;SDS011;57063;51.406;-2.402;2022-12-11T22:56:11;34.55;;;15.68;;
48881;SDS011;57063;51.406;-2.402;2022-12-11T23:26:40;26.33;;;14.02;;
48881;SDS011;57063;51.406;-2.402;2022-12-11T23:29:12;31.38;;;14.68;;
48881;SDS011;57063;51.406;-2.402;2022-12-11T23:31:50;30.83;;;15.40;;
48881;SDS011;57063;51.406;-2.402;2022-12-11T23:34:43;32.28;;;15.40;;
48881;SDS011;57063;51.406;-2.402;2022-12-11T23:37:15;32.85;;;14.82;;
48881;SDS011;57063;51.406;-2.402;2022-12-11T23:39:52;31.85;;;15.05;;
48881;SDS011;57063;51.406;-2.402;2022-12-11T23:42:44;28.35;;;14.43;;
48881;SDS011;57063;51.406;-2.402;2022-12-11T23:45:20;30.88;;;15.70;;
48881;SDS011;57063;51.406;-2.402;2022-12-11T23:48:21;29.65;;;14.43;;
48881;SDS011;57063;51.406;-2.402;2022-12-11T23:53:51;32.72;;;14.95;;
48881;SDS011;57063;51.406;-2.402;2022-12-11T23:56:46;31.25;;;15.85;;
48881;SDS011;57063;51.406;-2.402;2022-12-11T23:59:40;33.15;;;15.23;;
